Weather at Daşoguz Airport

Public forecast

Using degrees Celsius for public forecast. Weather courtesy of forecast.io.

Current aviation weather report (METAR) for Daşoguz Airport

2024/05/26 15:00 (retrieved 33 minutes ago)

UTAT 261500Z 10012KT CAVOK 23/01 Q1021 R08/CLRD70 NOSIG

Aviation forecast (TAF) for Daşoguz Airport

2024/05/26 12:03 (retrieved 3 hours ago)

TAF UTAT 261041Z 2612/2712 11016G26KT CAVOK PROB40 TEMPO 2612/2618 08020G30KT 3000 BLDU